createdAt,value
2022-09-20T00:00:42.858Z,12.65
2022-09-20T00:01:42.826Z,12.62
2022-09-20T00:02:42.759Z,12.58
2022-09-20T00:03:42.766Z,12.54
2022-09-20T00:04:42.812Z,12.57
2022-09-20T00:05:42.771Z,12.53
2022-09-20T00:06:42.774Z,12.49
2022-09-20T00:07:42.791Z,12.49
2022-09-20T00:08:42.794Z,12.50
2022-09-20T00:09:42.800Z,12.43
2022-09-20T00:10:42.804Z,12.39
2022-09-20T00:11:42.806Z,12.39
2022-09-20T00:12:42.811Z,12.36
2022-09-20T00:13:42.818Z,12.36
2022-09-20T00:14:42.829Z,12.31
2022-09-20T00:15:42.828Z,12.32
2022-09-20T00:16:42.919Z,12.28
2022-09-20T00:17:42.848Z,12.35
2022-09-20T00:18:42.848Z,12.31
2022-09-20T00:19:42.853Z,12.29
2022-09-20T00:20:42.865Z,12.31
2022-09-20T00:21:42.871Z,12.25
2022-09-20T00:22:42.868Z,12.25
2022-09-20T00:23:42.885Z,12.24
2022-09-20T00:24:48.228Z,12.24
2022-09-20T00:25:42.887Z,12.22
2022-09-20T00:26:42.898Z,12.27
2022-09-20T00:27:42.898Z,12.09
2022-09-20T00:28:42.912Z,12.09
2022-09-20T00:29:42.909Z,12.20
2022-09-20T00:30:42.916Z,12.24
2022-09-20T00:31:43.245Z,12.22
2022-09-20T00:32:42.957Z,12.20
2022-09-20T00:33:42.939Z,12.20
2022-09-20T00:34:42.948Z,12.12
2022-09-20T00:35:42.948Z,12.21
2022-09-20T00:36:42.951Z,12.17
2022-09-20T00:37:42.961Z,12.10
2022-09-20T00:38:42.970Z,12.21
2022-09-20T00:39:42.967Z,12.10
2022-09-20T00:40:43.043Z,12.13
2022-09-20T00:41:42.991Z,12.09
2022-09-20T00:42:42.985Z,12.12
2022-09-20T00:43:42.998Z,12.09
2022-09-20T00:44:43.008Z,12.10
2022-09-20T00:45:43.045Z,12.10
2022-09-20T00:46:43.014Z,12.03
2022-09-20T00:47:43.016Z,12.09
2022-09-20T00:48:43.053Z,12.09
2022-09-20T00:49:43.033Z,12.00
2022-09-20T00:50:43.029Z,11.97
2022-09-20T00:51:43.036Z,12.00
2022-09-20T00:52:43.048Z,11.97
2022-09-20T00:53:43.047Z,12.00
2022-09-20T00:54:43.052Z,12.02
2022-09-20T00:55:43.059Z,11.95
2022-09-20T00:56:43.071Z,11.99
2022-09-20T00:57:43.070Z,11.99
2022-09-20T00:58:43.073Z,11.94
2022-09-20T00:59:43.089Z,11.91
2022-09-20T01:00:43.135Z,11.94
2022-09-20T01:01:43.146Z,11.95
2022-09-20T01:02:43.159Z,11.90
2022-09-20T01:03:43.112Z,11.83
2022-09-20T01:04:43.139Z,11.83
2022-09-20T01:05:43.121Z,11.84
2022-09-20T01:06:43.121Z,11.78
2022-09-20T01:07:43.129Z,11.87
2022-09-20T01:08:43.142Z,11.88
2022-09-20T01:09:43.145Z,11.83
2022-09-20T01:10:43.143Z,11.81
2022-09-20T01:11:43.155Z,11.80
2022-09-20T01:12:43.163Z,11.87
2022-09-20T01:13:43.163Z,11.86
2022-09-20T01:14:43.165Z,11.70
2022-09-20T01:15:43.177Z,11.78
2022-09-20T01:16:43.317Z,11.70
2022-09-20T01:17:43.187Z,11.68
2022-09-20T01:18:43.193Z,11.73
2022-09-20T01:19:43.193Z,11.83
2022-09-20T01:20:43.217Z,11.75
2022-09-20T01:21:43.204Z,11.81
2022-09-20T01:22:43.215Z,11.70
2022-09-20T01:23:43.215Z,11.80
2022-09-20T01:24:43.226Z,11.75
2022-09-20T01:25:43.232Z,11.78
2022-09-20T01:26:43.229Z,11.75
2022-09-20T01:27:43.237Z,11.70
2022-09-20T01:28:43.241Z,11.73
2022-09-20T01:29:43.247Z,11.69
2022-09-20T01:30:43.263Z,11.72
2022-09-20T01:31:43.345Z,11.69
2022-09-20T01:32:43.269Z,11.63
2022-09-20T01:33:43.270Z,11.81
2022-09-20T01:34:43.272Z,11.68
2022-09-20T01:35:43.286Z,11.80
2022-09-20T01:36:43.313Z,11.83
2022-09-20T01:37:43.290Z,11.72
2022-09-20T01:38:43.303Z,11.75
2022-09-20T01:39:43.307Z,11.73
2022-09-20T01:40:43.345Z,11.73
2022-09-20T01:41:43.310Z,11.70
2022-09-20T01:42:43.326Z,11.69
2022-09-20T01:43:43.328Z,11.70
2022-09-20T01:44:43.328Z,11.73
2022-09-20T01:45:43.389Z,11.72
2022-09-20T01:46:43.364Z,11.72
2022-09-20T01:47:43.350Z,11.69
2022-09-20T01:48:43.357Z,11.72
2022-09-20T01:49:43.360Z,11.77
2022-09-20T01:50:43.363Z,11.69
2022-09-20T01:51:43.366Z,11.75
2022-09-20T01:52:43.391Z,11.77
2022-09-20T01:53:43.382Z,11.69
2022-09-20T01:54:43.379Z,11.69
2022-09-20T01:55:43.392Z,11.72
2022-09-20T01:56:43.409Z,11.70
2022-09-20T01:57:43.396Z,11.72
2022-09-20T01:58:43.401Z,11.70
2022-09-20T01:59:43.407Z,11.73
2022-09-20T02:00:43.477Z,11.72
2022-09-20T02:01:43.416Z,11.72
2022-09-20T02:02:43.496Z,11.73
2022-09-20T02:03:43.430Z,11.73
2022-09-20T02:04:43.431Z,11.75
2022-09-20T02:05:43.457Z,11.77
2022-09-20T02:06:43.450Z,11.70
2022-09-20T02:07:43.448Z,11.66
2022-09-20T02:08:43.475Z,11.65
2022-09-20T02:09:43.459Z,11.65
2022-09-20T02:10:43.472Z,11.70
2022-09-20T02:11:43.475Z,11.72
2022-09-20T02:12:43.475Z,11.72
2022-09-20T02:13:43.489Z,11.75
2022-09-20T02:14:43.485Z,11.72
2022-09-20T02:15:43.490Z,11.75
2022-09-20T02:16:43.600Z,11.75
2022-09-20T02:17:43.501Z,11.77
2022-09-20T02:18:43.507Z,11.87
2022-09-20T02:19:43.511Z,11.73
2022-09-20T02:20:43.518Z,11.77
2022-09-20T02:21:43.528Z,11.84
2022-09-20T02:22:43.528Z,11.77
2022-09-20T02:23:43.534Z,11.88
2022-09-20T02:24:43.567Z,11.88
2022-09-20T02:25:43.549Z,11.80
2022-09-20T02:26:43.551Z,11.90
2022-09-20T02:27:43.555Z,11.94
2022-09-20T02:28:43.568Z,11.88
2022-09-20T02:29:43.572Z,11.95
2022-09-20T02:30:43.568Z,11.94
2022-09-20T02:31:43.658Z,11.88
2022-09-20T02:32:43.584Z,11.88
2022-09-20T02:33:43.595Z,11.94
2022-09-20T02:34:43.598Z,11.88
2022-09-20T02:35:43.606Z,11.88
2022-09-20T02:36:43.602Z,11.95
2022-09-20T02:37:43.616Z,11.90
2022-09-20T02:38:43.620Z,12.04
2022-09-20T02:39:43.627Z,12.02
2022-09-20T02:40:43.727Z,12.04
2022-09-20T02:41:43.637Z,12.06
2022-09-20T02:42:43.641Z,12.00
2022-09-20T02:43:43.642Z,12.00
2022-09-20T02:44:43.653Z,12.02
2022-09-20T02:45:43.688Z,11.94
2022-09-20T02:46:43.658Z,12.04
2022-09-20T02:47:43.672Z,12.06
2022-09-20T02:48:43.669Z,12.03
2022-09-20T02:49:43.680Z,12.00
2022-09-20T02:50:43.688Z,12.07
2022-09-20T02:51:43.692Z,12.00
2022-09-20T02:52:43.698Z,12.04
2022-09-20T02:53:43.694Z,12.03
2022-09-20T02:54:43.703Z,12.03
2022-09-20T02:55:43.706Z,12.06
2022-09-20T02:56:43.747Z,11.97
2022-09-20T02:57:43.720Z,12.06
2022-09-20T02:58:43.724Z,11.97
2022-09-20T02:59:43.735Z,12.09
2022-09-20T03:00:43.738Z,12.00
2022-09-20T03:01:43.853Z,12.13
2022-09-20T03:02:43.930Z,12.10
2022-09-20T03:03:43.759Z,12.12
2022-09-20T03:04:43.756Z,12.09
2022-09-20T03:05:43.771Z,11.97
2022-09-20T03:06:43.768Z,12.09
2022-09-20T03:07:43.782Z,11.97
2022-09-20T03:08:43.781Z,12.07
2022-09-20T03:09:43.785Z,12.04
2022-09-20T03:10:43.790Z,12.09
2022-09-20T03:11:43.796Z,12.06
2022-09-20T03:12:43.824Z,12.09
2022-09-20T03:13:43.818Z,12.17
2022-09-20T03:14:43.818Z,12.13
2022-09-20T03:15:43.819Z,12.04
2022-09-20T03:16:45.777Z,12.12
2022-09-20T03:17:43.837Z,12.12
2022-09-20T03:18:43.834Z,12.12
2022-09-20T03:19:43.845Z,12.13
2022-09-20T03:20:43.854Z,12.13
2022-09-20T03:21:43.849Z,12.17
2022-09-20T03:22:43.864Z,12.22
2022-09-20T03:23:43.861Z,12.13
2022-09-20T03:24:43.869Z,12.20
2022-09-20T03:25:43.879Z,12.12
2022-09-20T03:26:43.889Z,12.22
2022-09-20T03:27:43.887Z,12.28
2022-09-20T03:28:43.912Z,12.25
2022-09-20T03:29:43.897Z,12.21
2022-09-20T03:30:43.903Z,12.22
2022-09-20T03:31:43.972Z,12.25
2022-09-20T03:32:43.921Z,12.21
2022-09-20T03:33:43.925Z,12.27
2022-09-20T03:34:43.932Z,12.21
2022-09-20T03:35:43.928Z,12.21
2022-09-20T03:36:43.937Z,12.21
2022-09-20T03:37:43.948Z,12.17
2022-09-20T03:38:43.946Z,12.25
2022-09-20T03:39:43.955Z,12.21
2022-09-20T03:40:46.510Z,12.21
2022-09-20T03:41:43.971Z,12.18
2022-09-20T03:42:43.970Z,12.12
2022-09-20T03:43:43.976Z,12.17
2022-09-20T03:44:44.003Z,12.22
2022-09-20T03:45:44.022Z,12.24
2022-09-20T03:46:43.999Z,12.09
2022-09-20T03:47:44.005Z,12.21
2022-09-20T03:48:44.005Z,12.17
2022-09-20T03:49:44.016Z,12.12
2022-09-20T03:50:44.022Z,12.17
2022-09-20T03:51:44.020Z,12.18
2022-09-20T03:52:44.036Z,12.17
2022-09-20T03:53:44.032Z,12.09
2022-09-20T03:54:44.044Z,12.21
2022-09-20T03:55:44.051Z,12.10
2022-09-20T03:56:44.057Z,12.07
2022-09-20T03:57:44.056Z,12.09
2022-09-20T03:58:44.062Z,11.97
2022-09-20T03:59:44.068Z,12.06
2022-09-20T04:00:44.197Z,11.95
2022-09-20T04:01:44.078Z,12.10
2022-09-20T04:02:44.177Z,11.95
2022-09-20T04:03:44.094Z,12.07
2022-09-20T04:04:44.096Z,12.00
2022-09-20T04:05:44.110Z,12.04
2022-09-20T04:06:44.109Z,11.99
2022-09-20T04:07:44.123Z,12.06
2022-09-20T04:08:44.128Z,12.00
2022-09-20T04:09:44.140Z,12.09
2022-09-20T04:10:44.128Z,12.12
2022-09-20T04:11:44.143Z,12.12
2022-09-20T04:12:44.140Z,12.12
2022-09-20T04:13:44.143Z,12.09
2022-09-20T04:14:44.154Z,12.07
2022-09-20T04:15:44.163Z,12.06
2022-09-20T04:16:44.296Z,11.99
2022-09-20T04:17:44.167Z,12.09
2022-09-20T04:18:44.173Z,12.02
2022-09-20T04:19:44.177Z,11.99
2022-09-20T04:20:44.191Z,12.00
2022-09-20T04:21:44.192Z,11.99
2022-09-20T04:22:44.199Z,11.99
2022-09-20T04:23:44.199Z,12.06
2022-09-20T04:24:44.207Z,11.99
2022-09-20T04:25:44.353Z,12.10
2022-09-20T04:26:44.219Z,12.15
2022-09-20T04:27:44.221Z,12.09
2022-09-20T04:28:44.235Z,12.18
2022-09-20T04:29:44.247Z,12.13
2022-09-20T04:30:44.265Z,12.07
2022-09-20T04:31:44.320Z,12.00
2022-09-20T04:32:44.270Z,11.99
2022-09-20T04:33:44.264Z,11.99
2022-09-20T04:34:44.269Z,11.99
2022-09-20T04:35:44.276Z,11.95
2022-09-20T04:36:44.273Z,12.03
2022-09-20T04:37:44.281Z,12.02
2022-09-20T04:38:44.292Z,12.00
2022-09-20T04:39:44.300Z,12.07
2022-09-20T04:40:44.434Z,12.12
2022-09-20T04:41:44.310Z,12.10
2022-09-20T04:42:44.308Z,11.99
2022-09-20T04:43:44.318Z,11.99
2022-09-20T04:44:44.326Z,12.06
2022-09-20T04:45:44.407Z,11.95
2022-09-20T04:46:44.337Z,11.99
2022-09-20T04:47:44.342Z,11.99
2022-09-20T04:48:44.362Z,11.97
2022-09-20T04:49:44.354Z,12.00
2022-09-20T04:50:44.356Z,12.00
2022-09-20T04:51:44.365Z,12.09
2022-09-20T04:52:44.365Z,12.12
2022-09-20T04:53:44.374Z,12.12
2022-09-20T04:54:44.376Z,12.10
2022-09-20T04:55:44.446Z,12.12
2022-09-20T04:56:44.395Z,12.15
2022-09-20T04:57:44.397Z,12.17
2022-09-20T04:58:44.397Z,12.13
2022-09-20T04:59:44.402Z,12.12
2022-09-20T05:00:44.480Z,12.10
2022-09-20T05:01:44.513Z,12.20
2022-09-20T05:02:44.534Z,12.13
2022-09-20T05:03:44.426Z,12.18
2022-09-20T05:04:44.455Z,12.10
2022-09-20T05:05:44.469Z,12.10
2022-09-20T05:06:44.449Z,12.15
2022-09-20T05:07:44.456Z,12.09
2022-09-20T05:08:44.453Z,12.12
2022-09-20T05:09:44.458Z,12.13
2022-09-20T05:10:44.463Z,12.15
2022-09-20T05:11:44.477Z,12.17
2022-09-20T05:12:44.482Z,12.13
2022-09-20T05:13:44.489Z,12.13
2022-09-20T05:14:44.495Z,12.17
2022-09-20T05:15:44.500Z,12.20
2022-09-20T05:16:44.598Z,12.21
2022-09-20T05:17:44.503Z,12.18
2022-09-20T05:18:44.516Z,12.27
2022-09-20T05:19:44.517Z,12.20
2022-09-20T05:20:44.542Z,12.32
2022-09-20T05:21:44.525Z,12.25
2022-09-20T05:22:44.534Z,12.31
2022-09-20T05:23:44.546Z,12.31
2022-09-20T05:24:44.549Z,12.29
2022-09-20T05:25:44.556Z,12.35
2022-09-20T05:26:44.553Z,12.28
2022-09-20T05:27:44.561Z,12.36
2022-09-20T05:28:44.565Z,12.32
2022-09-20T05:29:44.571Z,12.31
2022-09-20T05:30:44.584Z,12.31
2022-09-20T05:31:44.698Z,12.24
2022-09-20T05:32:44.596Z,12.28
2022-09-20T05:33:44.603Z,12.35
2022-09-20T05:34:44.599Z,12.32
2022-09-20T05:35:44.615Z,12.29
2022-09-20T05:36:44.632Z,12.37
2022-09-20T05:37:44.625Z,12.35
2022-09-20T05:38:44.624Z,12.35
2022-09-20T05:39:44.636Z,12.31
2022-09-20T05:40:44.636Z,12.31
2022-09-20T05:41:44.648Z,12.31
2022-09-20T05:42:44.652Z,12.42
2022-09-20T05:43:44.652Z,12.42
2022-09-20T05:44:44.659Z,12.43
2022-09-20T05:45:44.683Z,12.37
2022-09-20T05:46:44.680Z,12.37
2022-09-20T05:47:44.674Z,12.42
2022-09-20T05:48:44.681Z,12.46
2022-09-20T05:49:44.694Z,12.42
2022-09-20T05:50:44.699Z,12.49
2022-09-20T05:51:44.705Z,12.49
2022-09-20T05:52:44.733Z,12.47
2022-09-20T05:53:44.716Z,12.45
2022-09-20T05:54:44.722Z,12.49
2022-09-20T05:55:44.723Z,12.50
2022-09-20T05:56:44.733Z,12.55
2022-09-20T05:57:44.734Z,12.65
2022-09-20T05:58:44.747Z,12.70
2022-09-20T05:59:44.746Z,12.61
2022-09-20T06:00:44.832Z,12.76
2022-09-20T06:01:44.765Z,12.73
2022-09-20T06:02:44.772Z,12.61
2022-09-20T06:03:44.777Z,12.68
2022-09-20T06:04:44.775Z,12.55
2022-09-20T06:05:44.781Z,12.65
2022-09-20T06:06:44.786Z,12.64
2022-09-20T06:07:44.801Z,12.73
2022-09-20T06:08:44.820Z,12.75
2022-09-20T06:09:44.810Z,12.75
2022-09-20T06:10:44.820Z,12.78
2022-09-20T06:11:46.497Z,12.70
2022-09-20T06:12:44.825Z,12.79
2022-09-20T06:13:44.828Z,12.80
2022-09-20T06:14:44.844Z,12.79
2022-09-20T06:15:44.841Z,12.85
2022-09-20T06:16:44.899Z,12.82
2022-09-20T06:17:44.854Z,12.82
2022-09-20T06:18:44.869Z,12.86
2022-09-20T06:19:44.867Z,12.90
2022-09-20T06:20:44.879Z,12.98
2022-09-20T06:21:44.878Z,12.94
2022-09-20T06:22:44.887Z,12.95
2022-09-20T06:23:44.891Z,12.91
2022-09-20T06:24:44.926Z,12.86
2022-09-20T06:25:44.910Z,12.94
2022-09-20T06:26:44.911Z,12.98
2022-09-20T06:27:44.923Z,12.85
2022-09-20T06:28:44.924Z,12.95
2022-09-20T06:29:44.935Z,12.85
2022-09-20T06:30:44.966Z,12.91
2022-09-20T06:31:44.951Z,12.97
2022-09-20T06:32:44.947Z,12.98
2022-09-20T06:33:44.977Z,12.91
2022-09-20T06:34:44.960Z,13.00
2022-09-20T06:35:44.967Z,13.01
2022-09-20T06:36:44.980Z,12.98
2022-09-20T06:37:44.987Z,13.04
2022-09-20T06:38:44.984Z,13.03
2022-09-20T06:39:44.992Z,13.08
2022-09-20T06:40:45.017Z,13.03
2022-09-20T06:41:45.005Z,13.18
2022-09-20T06:42:45.016Z,13.18
2022-09-20T06:43:45.025Z,13.13
2022-09-20T06:44:45.033Z,13.22
2022-09-20T06:45:45.082Z,13.23
2022-09-20T06:46:45.038Z,13.11
2022-09-20T06:53:37.516Z,13.33
2022-09-20T06:54:37.523Z,13.39
2022-09-20T06:55:37.526Z,13.39
2022-09-20T06:57:35.120Z,13.53
2022-09-20T06:58:35.106Z,13.50
2022-09-20T06:59:35.120Z,13.52
2022-09-20T07:01:30.184Z,13.65
2022-09-20T07:02:22.734Z,13.75
2022-09-20T07:07:01.144Z,13.92
2022-09-20T07:18:27.837Z,14.37
2022-09-20T07:19:27.846Z,14.32
2022-09-20T07:20:27.831Z,14.41
2022-09-20T07:21:27.834Z,14.53
2022-09-20T07:22:27.841Z,14.63
2022-09-20T07:23:27.855Z,14.60
2022-09-20T07:24:27.859Z,14.65
2022-09-20T07:25:27.868Z,14.66
2022-09-20T07:26:27.873Z,14.66
2022-09-20T07:27:29.500Z,14.65
2022-09-20T07:28:27.879Z,14.60
2022-09-20T07:29:27.888Z,14.59
2022-09-20T07:30:27.900Z,14.55
2022-09-20T07:31:27.948Z,14.51
2022-09-20T07:32:27.916Z,14.53
2022-09-20T07:33:27.916Z,14.50
2022-09-20T07:34:27.943Z,14.43
2022-09-20T07:35:27.930Z,14.37
2022-09-20T07:36:27.935Z,14.41
2022-09-20T07:37:27.952Z,14.32
2022-09-20T07:38:27.951Z,14.36
2022-09-20T07:39:27.959Z,14.32
2022-09-20T07:40:28.026Z,14.44
2022-09-20T07:41:27.970Z,14.47
2022-09-20T07:42:27.980Z,14.51
2022-09-20T07:43:27.985Z,14.58
2022-09-20T07:44:28.014Z,14.62
2022-09-20T07:45:28.071Z,14.68
2022-09-20T07:46:28.016Z,14.77
2022-09-20T07:47:28.014Z,14.68
2022-09-20T07:48:28.022Z,14.63
2022-09-20T07:49:28.029Z,14.69
2022-09-20T07:50:28.067Z,14.79
2022-09-20T07:51:28.043Z,14.91
2022-09-20T07:52:28.052Z,15.10
2022-09-20T07:53:28.058Z,15.40
2022-09-20T07:54:28.072Z,15.57
2022-09-20T07:55:28.084Z,15.67
2022-09-20T07:56:28.080Z,16.05
2022-09-20T07:57:28.092Z,16.21
2022-09-20T07:58:28.105Z,17.02
2022-09-20T07:59:28.114Z,17.29
2022-09-20T08:00:28.119Z,17.39
2022-09-20T08:01:28.190Z,17.34
2022-09-20T08:02:28.173Z,17.31
2022-09-20T08:03:28.147Z,17.20
2022-09-20T08:04:28.152Z,17.08
2022-09-20T08:05:28.162Z,17.08
2022-09-20T08:06:28.186Z,17.04
2022-09-20T08:07:28.172Z,16.83
2022-09-20T08:08:28.187Z,16.84
2022-09-20T08:09:28.197Z,16.78
2022-09-20T08:10:28.205Z,16.71
2022-09-20T08:11:28.254Z,17.16
2022-09-20T08:14:28.240Z,18.47
2022-09-20T08:15:28.250Z,18.71
2022-09-20T08:16:28.291Z,18.66
2022-09-20T08:17:28.264Z,18.52
2022-09-20T08:18:28.268Z,18.40
2022-09-20T08:19:28.284Z,18.23
2022-09-20T08:20:28.289Z,18.00
2022-09-20T08:21:28.301Z,17.71
2022-09-20T08:22:28.325Z,17.45
2022-09-20T08:23:28.321Z,17.23
2022-09-20T08:24:28.324Z,17.22
2022-09-20T08:25:28.339Z,17.65
2022-09-20T08:26:28.353Z,17.76
2022-09-20T08:27:28.358Z,17.52
2022-09-20T08:28:28.361Z,17.52
2022-09-20T08:29:28.370Z,17.27
2022-09-20T08:30:28.490Z,17.11
2022-09-20T08:31:28.436Z,17.08
2022-09-20T08:32:28.397Z,16.96
2022-09-20T08:33:28.409Z,16.84
2022-09-20T08:34:28.423Z,16.68
2022-09-20T08:35:28.428Z,16.57
2022-09-20T08:36:33.719Z,16.46
2022-09-20T08:37:28.454Z,16.41
2022-09-20T08:39:58.786Z,16.42
2022-09-20T08:40:28.580Z,16.42
2022-09-20T08:41:28.490Z,16.35
2022-09-20T08:42:33.301Z,16.33
2022-09-20T08:43:28.511Z,16.17
2022-09-20T08:44:28.515Z,16.17
2022-09-20T08:45:35.691Z,16.01
2022-09-20T08:46:28.566Z,15.86
2022-09-20T08:47:28.545Z,16.00
2022-09-20T08:48:28.547Z,16.10
2022-09-20T08:49:28.554Z,16.12
2022-09-20T08:50:28.572Z,16.10
2022-09-20T08:51:28.573Z,16.09
2022-09-20T08:52:28.591Z,16.12
2022-09-20T08:53:28.600Z,16.02
2022-09-20T08:54:32.325Z,15.94
2022-09-20T08:55:28.616Z,15.91
2022-09-20T08:56:28.626Z,15.80
2022-09-20T08:57:28.627Z,15.77
2022-09-20T08:58:28.645Z,15.75
2022-09-20T08:59:28.644Z,15.76
2022-09-20T09:00:28.660Z,15.75
2022-09-20T09:01:28.718Z,15.77
2022-09-20T09:02:28.744Z,15.73
2022-09-20T09:03:28.690Z,15.67
2022-09-20T09:04:28.697Z,15.65
2022-09-20T09:05:28.701Z,15.72
2022-09-20T09:06:28.716Z,15.72
2022-09-20T09:07:28.727Z,15.73
2022-09-20T09:08:28.726Z,15.62
2022-09-20T09:09:28.732Z,15.64
2022-09-20T09:10:28.765Z,15.62
2022-09-20T09:11:28.758Z,15.57
2022-09-20T09:12:28.762Z,15.49
2022-09-20T09:13:28.784Z,15.54
2022-09-20T09:14:28.789Z,15.44
2022-09-20T09:15:28.786Z,15.39
2022-09-20T09:16:34.616Z,15.40
2022-09-20T09:17:28.822Z,15.36
2022-09-20T09:18:31.700Z,15.46
2022-09-20T09:19:34.633Z,15.31
2022-09-20T09:20:28.843Z,15.43
2022-09-20T09:21:28.841Z,15.39
2022-09-20T09:22:28.854Z,15.37
2022-09-20T09:23:28.860Z,15.43
2022-09-20T09:24:28.866Z,15.42
2022-09-20T09:25:28.881Z,15.44
2022-09-20T09:26:28.903Z,15.44
2022-09-20T09:27:28.891Z,15.65
2022-09-20T09:28:28.899Z,15.67
2022-09-20T09:29:31.768Z,15.82
2022-09-20T09:30:28.923Z,16.17
2022-09-20T09:31:29.064Z,16.43
2022-09-20T09:32:28.934Z,16.56
2022-09-20T09:33:28.944Z,16.61
2022-09-20T09:34:28.959Z,16.72
2022-09-20T09:36:11.517Z,16.89
2022-09-20T09:37:11.515Z,16.84
2022-09-20T09:38:11.528Z,16.78
2022-09-20T09:39:11.536Z,16.60
2022-09-20T09:40:11.595Z,16.57
2022-09-20T09:41:11.562Z,16.46
2022-09-20T09:42:11.591Z,16.35
2022-09-20T09:43:11.572Z,16.38
2022-09-20T09:44:11.588Z,16.31
2022-09-20T09:45:11.593Z,16.35
2022-09-20T09:46:11.644Z,16.41
2022-09-20T09:47:11.618Z,16.68
2022-09-20T09:48:11.660Z,16.84
2022-09-20T09:49:12.848Z,16.84
2022-09-20T09:50:11.645Z,16.87
2022-09-20T09:51:11.649Z,16.78
2022-09-20T09:52:11.657Z,16.99
2022-09-20T09:53:11.667Z,17.30
2022-09-20T09:54:11.683Z,17.45
2022-09-20T09:55:11.691Z,17.72
2022-09-20T09:56:14.144Z,17.78
2022-09-20T09:57:11.713Z,17.80
2022-09-20T09:58:11.747Z,17.89
2022-09-20T09:59:11.726Z,17.86
2022-09-20T10:00:18.393Z,17.82
2022-09-20T10:01:11.788Z,17.78
2022-09-20T10:02:11.816Z,17.70
2022-09-20T10:03:11.773Z,17.57
2022-09-20T10:04:11.779Z,17.54
2022-09-20T10:05:11.790Z,17.63
2022-09-20T10:06:11.806Z,17.59
2022-09-20T10:07:11.809Z,17.60
2022-09-20T10:08:11.820Z,17.57
2022-09-20T10:09:11.829Z,17.59
2022-09-20T10:10:11.850Z,17.64
2022-09-20T10:11:11.850Z,17.54
2022-09-20T10:12:11.865Z,17.57
2022-09-20T10:13:11.876Z,17.67
2022-09-20T10:14:11.904Z,17.76
2022-09-20T10:15:11.893Z,17.78
2022-09-20T10:16:11.973Z,17.78
2022-09-20T10:17:11.914Z,17.78
2022-09-20T10:18:11.924Z,17.76
2022-09-20T10:19:11.935Z,17.78
2022-09-20T10:20:11.952Z,18.19
2022-09-20T10:21:11.957Z,18.45
2022-09-20T10:22:11.975Z,18.58
2022-09-20T10:23:51.314Z,18.70
2022-09-20T10:24:11.989Z,18.88
2022-09-20T10:25:12.003Z,18.88
2022-09-20T10:26:12.013Z,18.99
2022-09-20T10:27:12.026Z,19.02
2022-09-20T10:28:12.043Z,18.99
2022-09-20T10:29:12.051Z,19.24
2022-09-20T10:30:12.080Z,19.66
2022-09-20T10:31:12.140Z,19.79
2022-09-20T10:32:14.209Z,19.70
2022-09-20T10:33:12.104Z,19.58
2022-09-20T10:34:12.119Z,19.52
2022-09-20T10:35:12.124Z,19.39
2022-09-20T10:36:12.145Z,19.15
2022-09-20T10:37:12.155Z,18.99
2022-09-20T10:38:12.172Z,18.84
2022-09-20T10:39:12.173Z,18.65
2022-09-20T10:40:12.301Z,18.49
2022-09-20T10:41:12.205Z,18.37
2022-09-20T10:42:12.213Z,18.55
2022-09-20T10:43:12.229Z,18.59
2022-09-20T10:44:12.235Z,18.55
2022-09-20T10:45:20.678Z,18.52
2022-09-20T10:46:31.318Z,18.50
2022-09-20T10:47:12.323Z,18.55
2022-09-20T10:48:12.289Z,18.50
2022-09-20T10:49:12.297Z,18.45
2022-09-20T10:50:12.371Z,18.53
2022-09-20T10:51:12.327Z,18.49
2022-09-20T10:52:12.329Z,18.49
2022-09-20T10:53:12.358Z,18.56
2022-09-20T10:54:12.361Z,18.66
2022-09-20T10:55:12.366Z,18.71
2022-09-20T10:56:12.377Z,18.92
2022-09-20T10:57:12.394Z,19.51
2022-09-20T10:58:12.410Z,19.63
2022-09-20T10:59:12.416Z,20.07
2022-09-20T11:00:12.538Z,20.63
2022-09-20T11:01:12.507Z,20.92
2022-09-20T11:02:12.521Z,21.14
2022-09-20T11:03:12.475Z,21.15
2022-09-20T11:04:12.488Z,21.20
2022-09-20T11:05:12.496Z,21.17
2022-09-20T11:06:12.519Z,20.96
2022-09-20T11:07:12.525Z,20.93
2022-09-20T11:08:12.545Z,21.18
2022-09-20T11:09:14.151Z,21.42
2022-09-20T11:12:15.178Z,22.47
2022-09-20T11:13:15.189Z,22.83
2022-09-20T11:14:15.203Z,23.13
2022-09-20T11:15:15.230Z,23.32
2022-09-20T11:16:15.267Z,23.50
2022-09-20T11:17:15.277Z,23.56
2022-09-20T11:18:15.270Z,23.71
2022-09-20T11:47:49.910Z,24.50
2022-09-20T11:48:25.445Z,24.58
2022-09-20T12:04:40.220Z,23.20
2022-09-20T12:05:39.794Z,23.09
2022-09-20T12:06:39.801Z,23.10
2022-09-20T12:07:39.828Z,23.21
2022-09-20T12:08:39.841Z,23.23
2022-09-20T12:09:39.868Z,23.40
2022-09-20T12:10:39.882Z,23.56
2022-09-20T12:11:39.903Z,23.93
2022-09-20T12:12:39.911Z,24.23
2022-09-20T12:13:39.939Z,24.39
2022-09-20T12:14:39.961Z,24.39
2022-09-20T12:15:39.977Z,24.40
2022-09-20T12:16:40.077Z,24.28
2022-09-20T12:21:49.655Z,22.68
2022-09-20T12:22:49.252Z,22.80
2022-09-20T12:23:49.265Z,22.83
2022-09-20T12:24:49.275Z,22.84
2022-09-20T12:25:49.299Z,23.03
2022-09-20T12:26:49.318Z,23.15
2022-09-20T12:27:49.336Z,23.15
2022-09-20T12:28:49.347Z,23.39
2022-09-20T12:29:49.372Z,23.54
2022-09-20T12:30:49.387Z,23.56
2022-09-20T12:31:49.454Z,23.63
2022-09-20T15:22:18.515Z,18.96
2022-09-20T15:23:18.512Z,18.83
2022-09-20T15:24:18.527Z,18.89
2022-09-20T15:26:56.207Z,18.86
2022-09-20T15:27:56.228Z,18.88
2022-09-20T15:28:56.300Z,18.81
2022-09-20T15:29:56.252Z,18.78
2022-09-20T15:59:47.077Z,18.78
2022-09-20T16:00:47.105Z,18.71
2022-09-20T16:08:37.168Z,18.40
2022-09-20T16:09:37.189Z,18.38
2022-09-20T16:10:37.195Z,18.25
2022-09-20T16:11:37.207Z,18.26
2022-09-20T16:12:37.227Z,18.16
2022-09-20T16:13:37.233Z,18.20
2022-09-20T16:14:37.252Z,18.08
2022-09-20T16:18:03.156Z,17.92
2022-09-20T16:19:03.139Z,17.94
2022-09-20T16:20:03.153Z,17.80
2022-09-20T16:22:15.788Z,17.76
2022-09-20T16:23:15.790Z,17.80
2022-09-20T16:24:15.788Z,17.68
2022-09-20T16:25:15.804Z,17.72
2022-09-20T16:26:15.814Z,17.54
2022-09-20T16:27:15.834Z,17.57
2022-09-20T16:28:15.839Z,17.54
2022-09-20T16:29:15.857Z,17.45
2022-09-20T16:30:15.862Z,17.42
2022-09-20T16:35:25.078Z,17.39
2022-09-20T16:36:27.450Z,17.34
2022-09-20T16:37:25.076Z,17.30
2022-09-20T16:38:25.094Z,17.31
2022-09-20T16:39:25.100Z,17.26
2022-09-20T16:40:25.148Z,17.22
2022-09-20T16:41:25.127Z,17.19
2022-09-20T16:42:25.128Z,17.19
2022-09-20T16:43:25.149Z,17.09
2022-09-20T16:44:25.159Z,17.09
2022-09-20T16:45:25.189Z,17.19
2022-09-20T16:46:25.185Z,17.08
2022-09-20T16:47:25.191Z,17.02
2022-09-20T16:48:25.195Z,17.02
2022-09-20T16:49:25.211Z,17.01
2022-09-20T16:50:25.216Z,16.94
2022-09-20T16:51:25.244Z,16.87
2022-09-20T16:52:25.245Z,16.89
2022-09-20T16:53:25.248Z,16.83
2022-09-20T16:54:29.688Z,16.78
2022-09-20T16:55:25.274Z,16.78
2022-09-20T16:56:25.290Z,16.84
2022-09-20T16:57:25.289Z,16.78
2022-09-20T16:58:25.298Z,16.76
2022-09-20T16:59:25.307Z,16.61
2022-09-20T17:00:25.320Z,16.68
2022-09-20T17:01:25.335Z,16.65
2022-09-20T17:02:25.338Z,16.65
2022-09-20T17:03:25.356Z,16.60
2022-09-20T17:04:25.418Z,16.54
2022-09-20T17:05:25.368Z,16.47
2022-09-20T17:06:25.385Z,16.46
2022-09-20T17:07:25.430Z,16.38
2022-09-20T17:08:26.408Z,16.36
2022-09-20T17:09:25.410Z,16.36
2022-09-20T17:10:26.227Z,16.38
2022-09-20T17:17:17.913Z,16.17
2022-09-20T17:18:17.920Z,16.12
2022-09-20T17:19:17.940Z,16.12
2022-09-20T17:20:17.941Z,16.01
2022-09-20T17:21:17.954Z,16.00
